createdAt,value
2018-03-31T00:00:32.424Z,11.50
2018-03-31T00:02:59.195Z,14.43
2018-03-31T00:05:25.266Z,13.80
2018-03-31T00:07:51.300Z,14.00
2018-03-31T00:10:17.283Z,11.80
2018-03-31T00:12:43.358Z,13.00
2018-03-31T00:15:09.286Z,13.63
2018-03-31T00:17:35.241Z,13.53
2018-03-31T00:20:01.232Z,13.40
2018-03-31T00:22:27.958Z,13.80
2018-03-31T00:24:53.925Z,13.30
2018-03-31T00:27:20.718Z,14.33
2018-03-31T00:29:46.687Z,12.80
2018-03-31T00:32:12.649Z,13.47
2018-03-31T00:34:39.426Z,14.60
2018-03-31T00:37:05.378Z,15.50
2018-03-31T00:39:31.370Z,14.77
2018-03-31T00:41:58.182Z,14.47
2018-03-31T00:44:24.173Z,13.93
2018-03-31T00:46:50.145Z,13.07
2018-03-31T00:49:16.182Z,13.30
2018-03-31T00:51:42.134Z,14.60
2018-03-31T00:54:08.204Z,13.73
2018-03-31T00:56:34.999Z,13.43
2018-03-31T00:59:01.032Z,13.33
2018-03-31T01:01:26.992Z,13.23
2018-03-31T01:03:52.987Z,14.53
2018-03-31T01:06:18.954Z,10.23
2018-03-31T01:08:44.922Z,13.03
2018-03-31T01:11:11.668Z,13.27
2018-03-31T01:13:38.397Z,12.50
2018-03-31T01:16:04.361Z,12.63
2018-03-31T01:18:31.097Z,13.60
2018-03-31T01:20:57.809Z,13.93
2018-03-31T01:23:23.805Z,13.50
2018-03-31T01:25:49.810Z,12.63
2018-03-31T01:28:15.776Z,13.50
2018-03-31T01:30:42.480Z,12.87
2018-03-31T01:33:08.489Z,13.70
2018-03-31T01:35:34.464Z,12.80
2018-03-31T01:38:02.260Z,14.43
2018-03-31T01:40:30.120Z,13.07
2018-03-31T01:42:57.923Z,14.23
2018-03-31T01:45:25.695Z,13.00
2018-03-31T01:47:53.491Z,13.40
2018-03-31T01:50:21.360Z,12.90
2018-03-31T01:52:49.151Z,11.07
2018-03-31T01:55:16.971Z,13.27
2018-03-31T01:57:44.773Z,14.20
2018-03-31T02:00:12.597Z,14.23
2018-03-31T02:02:40.456Z,12.50
2018-03-31T02:05:08.322Z,13.40
2018-03-31T02:07:36.115Z,14.13
2018-03-31T02:10:03.927Z,13.90
2018-03-31T02:12:31.701Z,12.03
2018-03-31T02:14:59.500Z,14.00
2018-03-31T02:17:27.296Z,13.20
2018-03-31T02:19:55.101Z,14.43
2018-03-31T02:22:22.897Z,14.70
2018-03-31T02:24:50.697Z,15.10
2018-03-31T02:27:18.477Z,13.67
2018-03-31T02:29:46.277Z,12.87
2018-03-31T02:32:14.077Z,13.90
2018-03-31T02:34:41.965Z,14.37
2018-03-31T02:37:09.768Z,14.20
2018-03-31T02:39:37.549Z,13.47
2018-03-31T02:42:05.383Z,14.13
2018-03-31T02:44:33.185Z,14.50
2018-03-31T02:47:01.041Z,13.57
2018-03-31T02:49:28.901Z,14.07
2018-03-31T02:51:56.684Z,13.10
2018-03-31T02:54:24.456Z,13.93
2018-03-31T02:56:52.257Z,14.10
2018-03-31T02:59:20.037Z,13.33
2018-03-31T03:01:47.817Z,14.70
2018-03-31T03:04:15.721Z,13.80
2018-03-31T03:06:43.507Z,14.40
2018-03-31T03:09:11.288Z,14.50
2018-03-31T03:11:39.096Z,15.33
2018-03-31T03:14:06.906Z,13.10
2018-03-31T03:16:34.729Z,12.83
2018-03-31T03:19:02.507Z,13.27
2018-03-31T03:21:30.300Z,12.80
2018-03-31T03:23:58.124Z,11.93
2018-03-31T03:26:25.990Z,13.33
2018-03-31T03:28:53.829Z,14.00
2018-03-31T03:31:21.629Z,12.73
2018-03-31T03:33:49.416Z,13.50
2018-03-31T03:36:17.222Z,13.93
2018-03-31T03:38:45.017Z,13.90
2018-03-31T03:41:12.847Z,11.47
2018-03-31T03:43:40.651Z,11.17
2018-03-31T03:46:08.482Z,14.07
2018-03-31T03:48:36.256Z,12.90
2018-03-31T03:51:04.053Z,13.30
2018-03-31T03:53:31.885Z,12.37
2018-03-31T03:55:59.674Z,12.70
2018-03-31T03:58:27.515Z,12.43
2018-03-31T04:00:55.312Z,12.90
2018-03-31T04:03:23.169Z,13.30
2018-03-31T04:05:50.945Z,13.40
2018-03-31T04:08:18.817Z,14.10
2018-03-31T04:10:46.665Z,12.87
2018-03-31T04:13:14.565Z,13.33
2018-03-31T04:15:42.408Z,13.03
2018-03-31T04:18:10.252Z,11.40
2018-03-31T04:20:38.073Z,12.53
2018-03-31T04:23:05.869Z,14.30
2018-03-31T04:25:33.661Z,12.53
2018-03-31T04:28:02.391Z,13.13
2018-03-31T04:30:30.228Z,13.77
2018-03-31T04:32:58.068Z,13.43
2018-03-31T04:35:25.889Z,14.60
2018-03-31T04:37:53.684Z,12.90
2018-03-31T04:40:22.348Z,13.17
2018-03-31T04:42:50.186Z,14.00
2018-03-31T04:45:18.005Z,14.20
2018-03-31T04:47:45.931Z,14.37
2018-03-31T04:50:13.730Z,14.30
2018-03-31T04:52:41.598Z,15.10
2018-03-31T04:55:09.537Z,11.20
2018-03-31T04:57:37.348Z,13.83
2018-03-31T05:00:05.179Z,12.90
2018-03-31T05:02:33.009Z,13.20
2018-03-31T05:05:00.863Z,15.00
2018-03-31T05:07:28.682Z,14.90
2018-03-31T05:09:56.484Z,14.30
2018-03-31T05:12:24.296Z,15.30
2018-03-31T05:14:52.093Z,14.30
2018-03-31T05:17:19.869Z,14.10
2018-03-31T05:19:47.664Z,14.77
2018-03-31T05:22:15.465Z,15.73
2018-03-31T05:24:43.324Z,13.90
2018-03-31T05:27:11.121Z,14.47
2018-03-31T05:29:38.929Z,15.63
2018-03-31T05:32:06.721Z,13.60
2018-03-31T05:34:34.505Z,15.37
2018-03-31T05:37:02.328Z,15.37
2018-03-31T05:39:30.126Z,13.43
2018-03-31T05:41:57.892Z,14.40
2018-03-31T05:44:25.833Z,14.63
2018-03-31T05:46:53.621Z,13.67
2018-03-31T05:49:21.429Z,13.70
2018-03-31T05:51:49.241Z,14.27
2018-03-31T05:54:17.021Z,15.33
2018-03-31T05:56:44.788Z,12.97
2018-03-31T05:59:12.620Z,13.50
2018-03-31T06:01:40.396Z,13.57
2018-03-31T06:04:08.197Z,15.33
2018-03-31T06:06:36.012Z,14.67
2018-03-31T06:09:03.872Z,14.00
2018-03-31T06:11:32.013Z,13.40
2018-03-31T06:13:59.813Z,14.70
2018-03-31T06:16:27.641Z,14.20
2018-03-31T06:18:55.425Z,14.63
2018-03-31T06:21:23.243Z,15.10
2018-03-31T06:23:51.053Z,15.20
2018-03-31T06:26:18.824Z,14.73
2018-03-31T06:28:46.659Z,14.17
2018-03-31T06:31:14.501Z,14.50
2018-03-31T06:33:42.298Z,14.37
2018-03-31T06:36:10.117Z,14.37
2018-03-31T06:38:37.934Z,14.73
2018-03-31T06:41:05.713Z,15.57
2018-03-31T06:43:33.550Z,14.80
2018-03-31T06:46:01.494Z,14.80
2018-03-31T06:48:29.281Z,15.63
2018-03-31T06:50:57.108Z,14.60
2018-03-31T06:53:24.909Z,14.00
2018-03-31T06:55:52.710Z,15.00
2018-03-31T06:58:20.586Z,17.57
2018-03-31T07:00:48.349Z,16.33
2018-03-31T07:03:16.146Z,18.40
2018-03-31T07:05:43.968Z,18.20
2018-03-31T07:08:11.763Z,14.87
2018-03-31T07:10:39.665Z,16.60
2018-03-31T07:13:07.478Z,16.40
2018-03-31T07:15:35.340Z,16.13
2018-03-31T07:18:03.152Z,16.87
2018-03-31T07:20:30.949Z,16.27
2018-03-31T07:22:58.759Z,16.97
2018-03-31T07:25:26.539Z,17.53
2018-03-31T07:27:54.340Z,17.63
2018-03-31T07:30:22.154Z,19.20
2018-03-31T07:32:50.913Z,19.20
2018-03-31T07:35:18.721Z,18.50
2018-03-31T07:37:46.552Z,20.20
2018-03-31T07:40:14.342Z,16.30
2018-03-31T07:42:42.172Z,19.03
2018-03-31T07:45:09.982Z,19.33
2018-03-31T07:47:37.840Z,17.17
2018-03-31T07:50:05.637Z,19.93
2018-03-31T07:52:33.415Z,19.73
2018-03-31T07:55:01.220Z,20.17
2018-03-31T07:57:29.010Z,18.27
2018-03-31T07:59:56.820Z,20.63
2018-03-31T08:02:24.598Z,19.50
2018-03-31T08:04:52.372Z,21.20
2018-03-31T08:07:20.189Z,20.30
2018-03-31T08:09:48.069Z,19.37
2018-03-31T08:12:15.862Z,22.07
2018-03-31T08:14:43.746Z,15.67
2018-03-31T08:17:11.539Z,20.70
2018-03-31T08:19:39.381Z,20.50
2018-03-31T08:22:07.222Z,21.47
2018-03-31T08:24:35.126Z,21.90
2018-03-31T08:27:02.891Z,21.47
2018-03-31T08:29:30.673Z,22.30
2018-03-31T08:31:58.488Z,22.70
2018-03-31T08:34:26.289Z,20.30
2018-03-31T08:36:54.122Z,19.37
2018-03-31T08:39:21.963Z,21.60
2018-03-31T08:41:49.772Z,22.93
2018-03-31T08:44:17.640Z,21.23
2018-03-31T08:46:45.506Z,21.90
2018-03-31T08:49:13.401Z,20.10
2018-03-31T08:51:41.296Z,22.07
2018-03-31T08:54:09.101Z,21.37
2018-03-31T08:56:36.909Z,22.17
2018-03-31T08:59:04.732Z,22.77
2018-03-31T09:01:32.519Z,18.70
2018-03-31T09:04:00.307Z,18.53
2018-03-31T09:06:28.238Z,23.03
2018-03-31T09:08:56.128Z,22.37
2018-03-31T09:11:23.972Z,22.77
2018-03-31T09:13:51.822Z,24.90
2018-03-31T09:16:19.624Z,22.37
2018-03-31T09:18:47.429Z,25.10
2018-03-31T09:21:15.567Z,25.23
2018-03-31T09:23:43.348Z,22.93
2018-03-31T09:26:11.188Z,24.53
2018-03-31T09:28:38.997Z,25.43
2018-03-31T09:31:06.821Z,21.70
2018-03-31T09:33:34.596Z,24.73
2018-03-31T09:36:02.433Z,26.03
2018-03-31T09:38:30.221Z,26.83
2018-03-31T09:40:58.378Z,29.40
2018-03-31T09:43:26.199Z,28.43
2018-03-31T09:45:54.000Z,27.67
2018-03-31T09:48:21.825Z,26.40
2018-03-31T09:50:49.677Z,25.00
2018-03-31T09:53:17.461Z,25.07
2018-03-31T09:55:45.268Z,24.13
2018-03-31T09:58:13.092Z,26.63
2018-03-31T10:00:40.915Z,27.73
2018-03-31T10:03:08.721Z,27.47
2018-03-31T10:05:36.579Z,27.33
2018-03-31T10:08:04.356Z,27.10
2018-03-31T10:10:32.133Z,27.80
2018-03-31T10:12:59.984Z,27.00
2018-03-31T10:15:27.781Z,26.13
2018-03-31T10:17:55.589Z,22.10
2018-03-31T10:20:23.421Z,26.93
2018-03-31T10:22:51.212Z,25.03
2018-03-31T10:25:19.017Z,26.60
2018-03-31T10:27:46.889Z,27.20
2018-03-31T10:30:14.728Z,20.03
2018-03-31T10:32:42.568Z,27.93
2018-03-31T10:35:10.382Z,19.67
2018-03-31T10:37:38.214Z,21.40
2018-03-31T10:40:06.015Z,27.20
2018-03-31T10:42:33.863Z,29.70
2018-03-31T10:45:01.658Z,25.07
2018-03-31T10:47:29.453Z,24.67
2018-03-31T10:49:57.318Z,22.63
2018-03-31T10:52:25.106Z,28.87
2018-03-31T10:54:53.458Z,26.83
2018-03-31T10:57:21.292Z,30.17
2018-03-31T10:59:49.088Z,24.93
2018-03-31T11:02:16.869Z,24.77
2018-03-31T11:04:44.710Z,26.80
2018-03-31T11:07:12.501Z,27.70
2018-03-31T11:09:40.289Z,24.20
2018-03-31T11:12:08.134Z,25.67
2018-03-31T11:14:35.984Z,24.83
2018-03-31T11:17:03.777Z,25.73
2018-03-31T11:19:31.576Z,24.80
2018-03-31T11:21:59.358Z,26.37
2018-03-31T11:24:27.159Z,26.70
2018-03-31T11:26:54.976Z,25.30
2018-03-31T11:29:22.756Z,26.30
2018-03-31T11:31:50.540Z,26.40
2018-03-31T11:34:18.404Z,26.40
2018-03-31T11:36:46.238Z,24.80
2018-03-31T11:39:14.026Z,25.10
2018-03-31T11:41:41.888Z,23.63
2018-03-31T11:44:09.689Z,25.07
2018-03-31T11:46:37.493Z,25.10
2018-03-31T11:49:05.310Z,24.33
2018-03-31T11:51:33.159Z,25.73
2018-03-31T11:54:00.996Z,24.83
2018-03-31T11:56:28.825Z,25.10
2018-03-31T11:58:56.628Z,25.07
2018-03-31T12:01:24.426Z,25.90
2018-03-31T12:03:52.241Z,23.43
2018-03-31T12:06:20.071Z,24.00
2018-03-31T12:08:47.848Z,24.17
2018-03-31T12:11:15.659Z,24.60
2018-03-31T12:13:43.446Z,24.30
2018-03-31T12:16:11.245Z,24.17
2018-03-31T12:18:39.129Z,25.23
2018-03-31T12:21:06.932Z,25.63
2018-03-31T12:23:34.744Z,25.93
2018-03-31T12:26:02.571Z,26.50
2018-03-31T12:28:30.349Z,24.70
2018-03-31T12:30:58.143Z,25.50
2018-03-31T12:33:26.003Z,25.40
2018-03-31T12:35:53.786Z,23.73
2018-03-31T12:38:21.582Z,30.10
2018-03-31T12:40:49.445Z,26.90
2018-03-31T12:43:17.256Z,24.40
2018-03-31T12:45:45.038Z,24.90
2018-03-31T12:48:12.848Z,27.70
2018-03-31T12:50:40.679Z,25.23
2018-03-31T12:53:08.485Z,24.40
2018-03-31T12:55:36.293Z,25.57
2018-03-31T12:58:04.112Z,26.20
2018-03-31T13:00:31.891Z,26.53
2018-03-31T13:02:59.767Z,24.60
2018-03-31T13:05:27.549Z,26.37
2018-03-31T13:07:55.328Z,24.93
2018-03-31T13:10:23.141Z,23.93
2018-03-31T13:12:50.944Z,23.47
2018-03-31T13:15:18.753Z,24.97
2018-03-31T13:17:46.617Z,24.27
2018-03-31T13:20:14.403Z,25.80
2018-03-31T13:22:42.204Z,25.07
2018-03-31T13:25:10.092Z,23.67
2018-03-31T13:27:37.887Z,25.10
2018-03-31T13:30:05.673Z,25.43
2018-03-31T13:32:33.505Z,25.50
2018-03-31T13:35:01.330Z,23.90
2018-03-31T13:37:29.272Z,26.43
2018-03-31T13:39:57.069Z,25.83
2018-03-31T13:42:24.845Z,26.00
2018-03-31T13:44:52.684Z,25.77
2018-03-31T13:47:20.504Z,26.17
2018-03-31T13:49:48.313Z,25.40
2018-03-31T13:52:16.114Z,25.83
2018-03-31T13:54:43.949Z,26.47
2018-03-31T13:57:11.731Z,25.90
2018-03-31T13:59:39.550Z,36.20
2018-03-31T14:02:07.368Z,29.40
2018-03-31T14:04:35.162Z,30.10
2018-03-31T14:07:02.961Z,29.77
2018-03-31T14:09:30.764Z,31.80
2018-03-31T14:11:58.540Z,32.90
2018-03-31T14:14:26.370Z,30.67
2018-03-31T14:16:54.209Z,30.43
2018-03-31T14:19:21.992Z,29.90
2018-03-31T14:21:49.785Z,40.47
2018-03-31T14:24:17.623Z,37.00
2018-03-31T14:26:45.412Z,33.50
2018-03-31T14:29:13.241Z,34.20
2018-03-31T14:31:41.048Z,40.37
2018-03-31T14:34:08.833Z,30.63
2018-03-31T14:36:36.634Z,52.40
2018-03-31T14:39:04.477Z,62.20
2018-03-31T14:41:32.280Z,43.30
2018-03-31T14:44:00.060Z,34.70
2018-03-31T14:46:27.880Z,46.27
2018-03-31T14:48:55.705Z,42.97
2018-03-31T14:51:23.517Z,38.70
2018-03-31T14:53:51.407Z,31.17
2018-03-31T14:56:19.236Z,30.27
2018-03-31T14:58:47.025Z,36.17
2018-03-31T15:01:14.888Z,32.97
2018-03-31T15:03:42.673Z,30.53
2018-03-31T15:06:10.509Z,32.03
2018-03-31T15:08:38.330Z,30.97
2018-03-31T15:11:06.161Z,36.73
2018-03-31T15:13:33.956Z,33.60
2018-03-31T15:16:01.744Z,35.23
2018-03-31T15:18:29.562Z,31.27
2018-03-31T15:20:57.354Z,33.50
2018-03-31T15:23:25.169Z,33.70
2018-03-31T15:25:52.954Z,36.33
2018-03-31T15:28:20.765Z,35.77
2018-03-31T15:30:48.540Z,33.80
2018-03-31T15:33:16.329Z,36.90
2018-03-31T15:35:44.146Z,31.30
2018-03-31T15:38:11.929Z,32.90
2018-03-31T15:40:39.793Z,36.10
2018-03-31T15:43:07.555Z,38.10
2018-03-31T15:45:35.367Z,35.13
2018-03-31T15:48:03.128Z,35.00
2018-03-31T15:50:30.901Z,33.30
2018-03-31T15:52:58.700Z,32.63
2018-03-31T15:55:26.468Z,32.87
2018-03-31T15:57:54.292Z,36.40
2018-03-31T16:00:22.072Z,34.67
2018-03-31T16:02:49.873Z,38.53
2018-03-31T16:05:17.674Z,36.53
2018-03-31T16:07:45.441Z,37.70
2018-03-31T16:10:13.236Z,37.60
2018-03-31T16:12:41.012Z,38.53
2018-03-31T16:15:08.819Z,38.33
2018-03-31T16:17:36.601Z,34.30
2018-03-31T16:20:04.396Z,34.40
2018-03-31T16:22:32.185Z,33.33
2018-03-31T16:24:59.969Z,35.37
2018-03-31T16:27:27.816Z,33.20
2018-03-31T16:29:55.601Z,38.83
2018-03-31T16:32:23.418Z,44.00
2018-03-31T16:34:51.408Z,34.50
2018-03-31T16:37:19.227Z,44.50
2018-03-31T16:39:47.023Z,33.47
2018-03-31T16:42:14.824Z,31.57
2018-03-31T16:44:58.215Z,34.60
2018-03-31T16:47:26.250Z,32.80
2018-03-31T16:49:54.423Z,36.97
2018-03-31T16:52:23.415Z,45.00
2018-03-31T16:54:51.558Z,38.10
2018-03-31T16:57:19.397Z,38.60
2018-03-31T16:59:47.208Z,35.53
2018-03-31T17:02:15.080Z,40.47
2018-03-31T17:04:43.676Z,39.47
2018-03-31T17:07:11.587Z,42.10
2018-03-31T17:09:39.480Z,41.87
2018-03-31T17:12:07.350Z,43.67
2018-03-31T17:14:35.200Z,40.13
2018-03-31T17:17:03.136Z,40.10
2018-03-31T17:19:30.921Z,41.37
2018-03-31T17:21:58.746Z,36.07
2018-03-31T17:24:26.598Z,41.00
2018-03-31T17:26:54.485Z,41.67
2018-03-31T17:29:22.377Z,43.80
2018-03-31T17:31:50.149Z,41.27
2018-03-31T17:34:18.004Z,37.40
2018-03-31T17:36:45.940Z,41.50
2018-03-31T17:39:13.782Z,40.60
2018-03-31T17:41:41.700Z,41.17
2018-03-31T17:44:09.569Z,37.83
2018-03-31T17:46:37.405Z,39.90
2018-03-31T17:49:05.364Z,39.77
2018-03-31T17:51:33.180Z,40.70
2018-03-31T17:54:00.949Z,40.43
2018-03-31T17:56:29.034Z,46.17
2018-03-31T17:58:56.917Z,44.63
2018-03-31T18:01:24.705Z,45.50
2018-03-31T18:03:52.543Z,45.70
2018-03-31T18:06:20.337Z,45.10
2018-03-31T18:08:48.240Z,45.90
2018-03-31T18:11:16.121Z,44.30
2018-03-31T18:13:44.008Z,43.80
2018-03-31T18:16:11.793Z,44.90
2018-03-31T18:18:39.640Z,44.80
2018-03-31T18:21:07.538Z,42.83
2018-03-31T18:23:35.396Z,44.50
2018-03-31T18:26:03.208Z,39.90
2018-03-31T18:28:31.028Z,43.00
2018-03-31T18:30:58.846Z,48.23
2018-03-31T18:33:26.652Z,45.13
2018-03-31T18:35:54.489Z,42.07
2018-03-31T18:38:22.391Z,42.87
2018-03-31T18:40:50.312Z,45.37
2018-03-31T18:43:18.152Z,45.77
2018-03-31T18:45:45.944Z,49.03
2018-03-31T18:48:13.769Z,51.77
2018-03-31T18:50:41.560Z,51.00
2018-03-31T18:53:10.155Z,46.97
2018-03-31T18:55:37.981Z,52.73
2018-03-31T18:58:05.785Z,51.57
2018-03-31T19:00:33.595Z,51.70
2018-03-31T19:03:01.425Z,50.13
2018-03-31T19:05:29.333Z,52.30
2018-03-31T19:07:57.124Z,49.97
2018-03-31T19:10:24.957Z,47.80
2018-03-31T19:12:52.758Z,43.50
2018-03-31T19:15:20.528Z,42.60
2018-03-31T19:17:48.430Z,43.37
2018-03-31T19:20:16.225Z,45.00
2018-03-31T19:22:44.010Z,42.10
2018-03-31T19:25:17.840Z,41.80
2018-03-31T19:27:45.636Z,39.80
2018-03-31T19:30:13.415Z,37.90
2018-03-31T19:32:41.460Z,35.10
2018-03-31T19:35:09.661Z,36.13
2018-03-31T19:37:37.789Z,37.47
2018-03-31T19:40:05.613Z,36.20
2018-03-31T19:42:33.444Z,35.03
2018-03-31T19:45:01.270Z,34.90
2018-03-31T19:47:29.152Z,36.13
2018-03-31T19:49:56.954Z,41.20
2018-03-31T19:52:24.744Z,38.53
2018-03-31T19:54:52.544Z,38.30
2018-03-31T19:57:20.330Z,37.47
2018-03-31T19:59:48.101Z,38.20
2018-03-31T20:02:15.928Z,38.27
2018-03-31T20:04:43.710Z,37.07
2018-03-31T20:07:11.767Z,39.00
2018-03-31T20:09:40.005Z,38.30
2018-03-31T20:12:08.137Z,37.20
2018-03-31T20:14:36.169Z,37.93
2018-03-31T20:17:03.964Z,38.37
2018-03-31T20:19:31.756Z,34.17
2018-03-31T20:21:59.575Z,37.30
2018-03-31T20:24:27.349Z,36.60
2018-03-31T20:26:55.121Z,36.97
2018-03-31T20:29:22.933Z,34.87
2018-03-31T20:31:50.707Z,34.67
2018-03-31T20:34:18.519Z,34.60
2018-03-31T20:36:46.314Z,33.00
2018-03-31T20:39:14.091Z,32.03
2018-03-31T20:41:41.896Z,33.50
2018-03-31T20:46:46.400Z,33.10
2018-03-31T20:49:14.212Z,32.43
2018-03-31T20:51:42.143Z,31.53
2018-03-31T20:54:09.960Z,30.00
2018-03-31T20:56:37.752Z,30.60
2018-03-31T20:59:05.525Z,30.80
2018-03-31T21:01:33.369Z,29.60
2018-03-31T21:04:01.196Z,29.30
2018-03-31T21:06:28.985Z,29.80
2018-03-31T21:08:56.849Z,28.43
2018-03-31T21:11:24.640Z,26.20
2018-03-31T21:13:52.418Z,26.13
2018-03-31T21:16:20.274Z,26.77
2018-03-31T21:18:48.052Z,28.10
2018-03-31T21:21:15.845Z,26.40
2018-03-31T21:23:43.704Z,25.13
2018-03-31T21:26:11.498Z,25.60
2018-03-31T21:28:39.281Z,25.77
2018-03-31T21:31:07.129Z,26.70
2018-03-31T21:33:34.934Z,25.80
2018-03-31T21:36:02.712Z,26.33
2018-03-31T21:38:30.533Z,26.30
2018-03-31T21:40:58.365Z,27.57
2018-03-31T21:43:26.151Z,26.17
2018-03-31T21:45:54.024Z,27.20
2018-03-31T21:48:21.811Z,26.57
2018-03-31T21:50:49.627Z,24.63
2018-03-31T21:53:17.446Z,25.60
2018-03-31T21:55:45.235Z,25.97
2018-03-31T21:58:13.024Z,24.87
2018-03-31T22:00:40.848Z,25.83
2018-03-31T22:03:08.681Z,26.00
2018-03-31T22:05:36.461Z,27.37
2018-03-31T22:08:04.366Z,26.97
2018-03-31T22:10:32.149Z,27.17
2018-03-31T22:13:06.137Z,27.07
2018-03-31T22:15:40.129Z,27.23
2018-03-31T22:18:07.977Z,24.40
2018-03-31T22:20:35.785Z,24.50
2018-03-31T22:23:03.593Z,25.13
2018-03-31T22:25:31.407Z,21.53
2018-03-31T22:27:59.220Z,21.53
2018-03-31T22:30:27.005Z,20.90
2018-03-31T22:32:54.825Z,22.47
2018-03-31T22:35:22.610Z,21.30
2018-03-31T22:37:50.462Z,20.27
2018-03-31T22:40:18.276Z,19.10
2018-03-31T22:42:46.076Z,20.70
2018-03-31T22:45:13.896Z,19.67
2018-03-31T22:47:41.698Z,20.40
2018-03-31T22:50:09.528Z,19.70
2018-03-31T22:52:37.338Z,20.17
2018-03-31T22:55:05.192Z,18.83
2018-03-31T22:57:33.021Z,18.03
2018-03-31T23:00:00.796Z,19.00
2018-03-31T23:02:28.592Z,19.30
2018-03-31T23:04:56.395Z,16.87
2018-03-31T23:07:24.240Z,16.17
2018-03-31T23:09:52.084Z,16.33
2018-03-31T23:12:20.698Z,16.57
2018-03-31T23:14:48.501Z,18.60
2018-03-31T23:17:16.317Z,17.53
2018-03-31T23:19:44.129Z,16.60
2018-03-31T23:22:11.916Z,14.00
2018-03-31T23:24:39.791Z,14.80
2018-03-31T23:27:07.567Z,15.47
2018-03-31T23:29:35.352Z,14.23
2018-03-31T23:32:03.236Z,13.93
2018-03-31T23:34:31.503Z,13.87
2018-03-31T23:36:59.315Z,13.30
2018-03-31T23:39:27.081Z,12.67
2018-03-31T23:41:54.864Z,11.50
2018-03-31T23:44:22.697Z,11.97
2018-03-31T23:46:50.464Z,11.90
2018-03-31T23:49:18.239Z,11.83
2018-03-31T23:51:46.047Z,11.20
2018-03-31T23:54:13.812Z,9.80
2018-03-31T23:56:41.600Z,9.27
2018-03-31T23:59:09.468Z,8.43
